Time;durP1;ratioP1;P1;durP2;ratioP2;P2;SDS_P1;SDS_P2;PMS_P1;PMS_P2;Temp;Humidity;BMP_temperature;BMP_pressure;BME280_temperature;BME280_humidity;BME280_pressure;Samples;Min_cycle;Max_cycle;Signal;HPM_P1;HPM_P2
2021/03/09 00:01:53;;;;;;;26.23;12.85;;;2.40;92.90;;;;;;4972419;29;20472;-88
2021/03/09 00:04:19;;;;;;;17.55;13.80;;;2.40;92.90;;;;;;4970384;29;20206;-88
2021/03/09 00:06:46;;;;;;;18.08;13.63;;;2.40;93.10;;;;;;4961923;28;20226;-88
2021/03/09 00:09:12;;;;;;;16.85;13.40;;;2.30;93.10;;;;;;4962847;29;20267;-88
2021/03/09 00:11:38;;;;;;;17.73;13.68;;;2.30;93.40;;;;;;4964029;29;20657;-87
2021/03/09 00:14:04;;;;;;;14.60;12.30;;;2.40;93.50;;;;;;4970613;28;20209;-89
2021/03/09 00:16:31;;;;;;;15.80;12.98;;;2.40;93.40;;;;;;4972260;28;20232;-88
2021/03/09 00:18:58;;;;;;;20.10;15.35;;;2.40;93.30;;;;;;4960950;29;20210;-87
2021/03/09 00:21:24;;;;;;;17.70;13.50;;;2.40;93.40;;;;;;4959728;29;20285;-87
2021/03/09 00:23:50;;;;;;;20.08;14.50;;;2.40;93.70;;;;;;4959672;29;20210;-87
2021/03/09 00:26:16;;;;;;;17.20;13.45;;;2.40;93.50;;;;;;4958584;29;20300;-87
2021/03/09 00:28:43;;;;;;;15.90;13.80;;;2.40;93.30;;;;;;4957874;29;20208;-87
2021/03/09 00:31:09;;;;;;;15.68;12.20;;;2.30;93.60;;;;;;4957823;29;20202;-87
2021/03/09 00:33:36;;;;;;;16.92;13.38;;;2.30;93.80;;;;;;4956915;28;20752;-87
2021/03/09 00:36:03;;;;;;;19.15;14.05;;;2.30;93.90;;;;;;4956062;28;20216;-87
2021/03/09 00:38:29;;;;;;;18.27;13.40;;;2.30;93.90;;;;;;4958070;29;20213;-87
2021/03/09 00:40:55;;;;;;;18.50;14.20;;;2.20;93.90;;;;;;4958380;29;20197;-87
2021/03/09 00:43:22;;;;;;;19.77;14.27;;;2.20;94.20;;;;;;4956844;29;20205;-87
2021/03/09 00:45:48;;;;;;;15.40;13.20;;;2.30;94.40;;;;;;4977106;29;20213;-89
2021/03/09 00:48:14;;;;;;;16.10;13.95;;;2.20;94.10;;;;;;4965806;29;20206;-87
2021/03/09 09:34:36;;;;;;;23.30;19.87;;;8.90;74.50;;;;;;4550884;23;20551;-86
2021/03/09 09:37:13;;;;;;;24.87;20.33;;;9.00;73.70;;;;;;4973748;28;20437;-85
2021/03/09 09:39:40;;;;;;;25.23;20.10;;;9.00;73.60;;;;;;4967735;29;21053;-86
2021/03/09 09:42:14;;;;;;;24.67;20.13;;;9.10;73.00;;;;;;4974352;28;20449;-88
2021/03/09 09:44:40;;;;;;;23.83;20.57;;;9.10;73.10;;;;;;4945906;29;20589;-85
2021/03/09 09:47:08;;;;;;;24.37;21.10;;;9.30;73.40;;;;;;4954142;28;20492;-86
2021/03/09 09:49:36;;;;;;;25.50;20.47;;;9.40;72.20;;;;;;4948084;29;20449;-85
2021/03/09 09:52:09;;;;;;;24.50;21.03;;;9.50;71.30;;;;;;4946811;29;20552;-86
2021/03/09 09:54:35;;;;;;;22.07;19.60;;;9.60;71.40;;;;;;4948347;28;20477;-86
2021/03/09 09:57:12;;;;;;;29.00;22.00;;;9.50;71.00;;;;;;4942874;28;20430;-90
2021/03/09 09:59:39;;;;;;;25.60;20.10;;;9.40;71.40;;;;;;4946622;29;20438;-90
2021/03/09 10:02:20;;;;;;;23.43;19.93;;;9.60;71.20;;;;;;4947109;29;20446;-90
2021/03/09 10:04:47;;;;;;;26.70;21.03;;;9.80;70.30;;;;;;4943643;29;20489;-89
2021/03/09 10:07:16;;;;;;;34.63;20.83;;;10.30;68.70;;;;;;4951011;29;20448;-87
2021/03/09 10:10:05;;;;;;;24.73;19.67;;;10.80;68.10;;;;;;4953040;29;20481;-89
2021/03/09 10:30:41;;;;;;;21.00;17.87;;;11.70;60.10;;;;;;5434720;23;20482;-89
2021/03/09 10:33:11;;;;;;;21.20;18.00;;;11.70;59.20;;;;;;4979616;28;20500;-89
2021/03/09 10:36:05;;;;;;;18.30;16.27;;;11.90;59.20;;;;;;4969456;28;20440;-87
2021/03/09 10:38:32;;;;;;;17.67;15.87;;;12.00;58.40;;;;;;4976041;28;20504;-89
2021/03/09 10:40:58;;;;;;;20.17;17.50;;;12.50;58.00;;;;;;4972119;28;20492;-90
2021/03/09 10:43:41;;;;;;;16.10;14.67;;;12.80;57.00;;;;;;4978309;28;20413;-90
2021/03/09 10:46:09;;;;;;;17.63;15.77;;;12.80;56.30;;;;;;4982775;28;20479;-87
2021/03/09 10:48:36;;;;;;;28.20;18.50;;;12.40;56.70;;;;;;4977330;28;20430;-87
2021/03/09 10:51:02;;;;;;;20.33;16.90;;;12.30;58.40;;;;;;4974476;28;20486;-90
2021/03/09 10:53:35;;;;;;;21.93;19.87;;;12.90;57.90;;;;;;4966292;28;20449;-88
2021/03/09 10:56:01;;;;;;;20.70;18.50;;;13.20;56.60;;;;;;4981863;28;20426;-88
2021/03/09 10:58:28;;;;;;;18.93;16.67;;;12.60;55.50;;;;;;4976840;28;20452;-89
2021/03/09 11:00:54;;;;;;;20.50;18.30;;;11.80;56.40;;;;;;4974358;28;20484;-90
2021/03/09 11:03:24;;;;;;;18.30;16.40;;;11.40;57.60;;;;;;4972364;29;20455;-88
2021/03/09 11:05:55;;;;;;;19.37;17.37;;;11.60;58.60;;;;;;4969517;29;20504;-91
2021/03/09 11:08:33;;;;;;;17.73;15.67;;;12.00;58.10;;;;;;4975003;29;20457;-90
2021/03/09 11:11:01;;;;;;;21.23;16.67;;;12.00;57.60;;;;;;4974916;28;20505;-90
2021/03/09 11:13:30;;;;;;;16.53;14.70;;;12.20;57.40;;;;;;4978477;29;20465;-90
2021/03/09 11:16:00;;;;;;;17.20;15.40;;;12.50;57.10;;;;;;4970918;29;20940;-91
2021/03/09 11:18:28;;;;;;;20.43;15.70;;;12.30;56.10;;;;;;4975007;28;20468;-90
2021/03/09 11:20:57;;;;;;;15.97;14.47;;;11.80;56.90;;;;;;4972864;29;20491;-90
2021/03/09 11:23:27;;;;;;;18.30;16.27;;;12.00;57.10;;;;;;4975865;28;20452;-90
2021/03/09 11:25:53;;;;;;;15.70;13.80;;;12.50;56.40;;;;;;4979991;28;20464;-90
2021/03/09 11:28:24;;;;;;;16.27;14.10;;;12.30;55.30;;;;;;4972307;28;21017;-92
2021/03/09 11:30:51;;;;;;;13.80;12.43;;;12.00;55.50;;;;;;4970295;28;20573;-89
2021/03/09 11:33:18;;;;;;;17.30;14.37;;;12.10;55.50;;;;;;4964433;28;20456;-88
2021/03/09 11:35:45;;;;;;;14.53;13.10;;;12.80;55.50;;;;;;4963180;29;20501;-89
2021/03/09 11:38:12;;;;;;;16.17;13.50;;;12.90;53.80;;;;;;4963818;29;20453;-87
2021/03/09 11:40:46;;;;;;;16.40;14.33;;;13.40;53.90;;;;;;4963918;29;20471;-87
2021/03/09 11:43:13;;;;;;;14.00;12.47;;;14.10;53.00;;;;;;4965015;29;20476;-89
2021/03/09 11:45:39;;;;;;;14.77;13.30;;;14.60;51.20;;;;;;4946321;29;20558;-89
2021/03/09 11:48:06;;;;;;;15.70;14.10;;;15.00;51.00;;;;;;4956242;29;20453;-90
2021/03/09 11:50:32;;;;;;;15.97;14.33;;;15.50;49.80;;;;;;4968724;29;20464;-89
2021/03/09 11:53:00;;;;;;;14.13;12.73;;;16.00;48.60;;;;;;4967270;29;20545;-90
2021/03/09 11:55:27;;;;;;;14.20;13.00;;;16.00;47.60;;;;;;4960616;28;20464;-88
2021/03/09 11:57:54;;;;;;;13.67;11.67;;;16.40;46.90;;;;;;4954669;28;20441;-87
2021/03/09 12:00:21;;;;;;;13.70;11.20;;;16.50;46.00;;;;;;4959341;28;20457;-88
2021/03/09 12:02:48;;;;;;;13.27;12.10;;;17.10;45.70;;;;;;4964404;29;20448;-89
2021/03/09 12:05:14;;;;;;;11.90;10.80;;;17.00;44.20;;;;;;4966972;28;20511;-88
2021/03/09 12:07:41;;;;;;;12.20;11.00;;;16.00;44.50;;;;;;4972319;28;20448;-88
2021/03/09 12:10:09;;;;;;;11.67;10.57;;;16.20;45.40;;;;;;4966923;28;20456;-91
2021/03/09 12:12:35;;;;;;;11.07;10.03;;;16.60;43.90;;;;;;4973944;28;20452;-89
2021/03/09 12:15:02;;;;;;;12.00;11.00;;;16.40;44.50;;;;;;4969630;29;20451;-88
2021/03/09 12:17:28;;;;;;;13.53;12.20;;;17.20;43.40;;;;;;4977771;28;20445;-87
2021/03/09 12:19:54;;;;;;;12.50;11.40;;;17.60;42.50;;;;;;4966070;28;20979;-88
2021/03/09 12:22:20;;;;;;;11.33;10.27;;;17.50;41.10;;;;;;4973352;28;20560;-88
2021/03/09 12:24:46;;;;;;;11.40;10.40;;;17.70;41.80;;;;;;4964206;28;20472;-88
2021/03/09 12:27:14;;;;;;;11.03;10.13;;;17.90;39.40;;;;;;4962864;28;20487;-88
2021/03/09 12:29:40;;;;;;;11.87;10.77;;;17.80;38.70;;;;;;4963345;28;20452;-89
2021/03/09 12:32:07;;;;;;;11.13;10.13;;;17.10;39.30;;;;;;4962047;29;20863;-89
2021/03/09 12:34:33;;;;;;;10.00;9.13;;;17.10;40.20;;;;;;4959279;29;20451;-89
2021/03/09 12:36:59;;;;;;;9.93;8.60;;;16.80;40.00;;;;;;4954057;29;20449;-88
2021/03/09 12:39:26;;;;;;;10.50;9.30;;;16.60;40.70;;;;;;4950903;29;20453;-89
2021/03/09 12:41:52;;;;;;;10.53;9.43;;;17.00;40.50;;;;;;4945953;29;20475;-89
2021/03/09 12:44:19;;;;;;;11.40;10.33;;;17.50;39.40;;;;;;4945894;29;20462;-89
2021/03/09 12:46:46;;;;;;;10.50;9.57;;;18.10;39.00;;;;;;4945304;29;20496;-88
2021/03/09 12:49:12;;;;;;;10.77;9.73;;;18.80;38.30;;;;;;4949990;28;20450;-88
2021/03/09 12:51:38;;;;;;;11.77;10.67;;;18.40;37.20;;;;;;4944685;29;20468;-89
2021/03/09 12:54:04;;;;;;;12.37;11.17;;;17.30;38.90;;;;;;4943052;29;20461;-89
2021/03/09 12:56:31;;;;;;;12.33;11.33;;;17.80;40.00;;;;;;4949301;29;20883;-87
2021/03/09 12:58:57;;;;;;;19.77;13.70;;;17.80;40.00;;;;;;4956446;28;20460;-88
2021/03/09 13:01:24;;;;;;;13.50;12.30;;;18.00;40.60;;;;;;4960249;29;20572;-88
2021/03/09 13:03:51;;;;;;;11.37;10.30;;;18.00;40.60;;;;;;4957027;29;20449;-87
2021/03/09 13:06:17;;;;;;;12.90;11.60;;;17.80;40.00;;;;;;4960071;28;20477;-88
2021/03/09 13:08:44;;;;;;;11.17;10.17;;;17.10;40.90;;;;;;4975828;28;20455;-87
2021/03/09 13:11:10;;;;;;;12.50;11.30;;;16.60;41.60;;;;;;4970533;28;20511;-88
2021/03/09 13:13:36;;;;;;;15.07;13.57;;;16.20;42.30;;;;;;4972861;29;20440;-88
2021/03/09 13:16:03;;;;;;;12.60;11.47;;;16.30;42.70;;;;;;4958376;29;20461;-88
2021/03/09 13:18:30;;;;;;;11.70;10.60;;;16.40;41.70;;;;;;4964007;28;20455;-88
2021/03/09 13:20:57;;;;;;;13.17;11.87;;;16.00;42.00;;;;;;4963680;29;20478;-88
2021/03/09 13:23:23;;;;;;;13.27;12.07;;;16.20;42.20;;;;;;4965318;29;20923;-88
2021/03/09 13:25:49;;;;;;;13.83;12.53;;;15.90;42.50;;;;;;4962809;28;20511;-88
2021/03/09 13:28:16;;;;;;;12.90;11.77;;;15.70;42.50;;;;;;4954426;29;20473;-87
2021/03/09 13:30:42;;;;;;;12.83;11.53;;;15.20;43.00;;;;;;4950999;29;20563;-87
2021/03/09 13:33:09;;;;;;;12.80;11.60;;;15.20;43.60;;;;;;4964964;29;20465;-87
2021/03/09 13:35:36;;;;;;;14.33;12.83;;;15.10;43.50;;;;;;4963061;28;20448;-88
2021/03/09 13:38:03;;;;;;;14.20;12.70;;;15.20;44.00;;;;;;4963979;29;20453;-88
2021/03/09 13:40:30;;;;;;;14.83;12.20;;;15.30;43.20;;;;;;4964571;29;20480;-88
2021/03/09 13:42:56;;;;;;;11.67;10.67;;;15.70;43.50;;;;;;4954730;28;20454;-88
2021/03/09 13:45:22;;;;;;;13.57;12.37;;;15.90;42.90;;;;;;4959792;29;20439;-87
2021/03/09 13:47:49;;;;;;;13.53;12.10;;;15.90;43.00;;;;;;4958522;29;20496;-88
2021/03/09 13:50:16;;;;;;;12.80;11.60;;;16.30;42.80;;;;;;4951191;29;20458;-87
2021/03/09 13:52:43;;;;;;;14.30;13.00;;;16.40;42.40;;;;;;4963068;29;20494;-87
2021/03/09 13:55:13;;;;;;;14.03;12.60;;;15.90;42.40;;;;;;4957730;28;20481;-88
2021/03/09 13:57:39;;;;;;;15.60;14.13;;;15.40;43.10;;;;;;4959287;28;20456;-87
2021/03/09 14:00:10;;;;;;;15.67;12.77;;;15.00;44.20;;;;;;4964104;28;20434;-87
2021/03/09 14:02:36;;;;;;;14.27;12.73;;;14.50;45.40;;;;;;4975129;28;20442;-85
2021/03/09 14:05:03;;;;;;;13.77;12.37;;;14.40;46.20;;;;;;4981971;28;20435;-85
2021/03/09 14:07:29;;;;;;;14.70;13.20;;;14.40;46.60;;;;;;4978482;28;20511;-86
2021/03/09 14:09:56;;;;;;;13.33;12.13;;;14.40;46.40;;;;;;4969395;28;20421;-84
2021/03/09 14:12:22;;;;;;;14.43;12.93;;;13.80;46.30;;;;;;4980020;28;20459;-85
2021/03/09 14:14:49;;;;;;;14.97;13.20;;;13.80;47.40;;;;;;4982307;28;20509;-85
2021/03/09 14:17:16;;;;;;;15.47;13.97;;;13.50;47.80;;;;;;4982413;28;20444;-84
2021/03/09 14:19:42;;;;;;;14.60;13.20;;;13.40;48.30;;;;;;4982647;28;20425;-84
2021/03/09 14:22:08;;;;;;;14.57;13.20;;;13.20;48.80;;;;;;4965632;28;20465;-83
2021/03/09 14:24:35;;;;;;;16.20;13.63;;;13.10;48.70;;;;;;4971357;28;20436;-85
2021/03/09 14:27:03;;;;;;;15.03;13.63;;;13.40;48.90;;;;;;4986649;28;20507;-88
2021/03/09 14:29:29;;;;;;;15.90;13.40;;;13.80;48.80;;;;;;4980544;28;20452;-86
2021/03/09 14:31:56;;;;;;;14.20;12.80;;;13.90;48.50;;;;;;4981311;28;20461;-86
2021/03/09 14:34:23;;;;;;;15.03;13.67;;;13.70;48.00;;;;;;4977662;28;20457;-87
2021/03/09 14:36:49;;;;;;;16.00;14.30;;;13.50;48.50;;;;;;4977121;28;20452;-85
2021/03/09 14:39:15;;;;;;;15.47;13.97;;;13.20;48.90;;;;;;4973013;28;20459;-86
2021/03/09 14:41:42;;;;;;;14.87;13.37;;;13.00;49.50;;;;;;4967754;28;20461;-86
2021/03/09 14:44:09;;;;;;;14.27;12.77;;;12.70;49.70;;;;;;4968218;28;20480;-83
2021/03/09 14:46:36;;;;;;;16.83;15.13;;;12.60;49.80;;;;;;4976500;28;20495;-85
2021/03/09 14:49:03;;;;;;;16.30;14.57;;;12.40;50.00;;;;;;4968349;29;20502;-85
2021/03/09 14:51:29;;;;;;;13.93;12.53;;;12.30;50.20;;;;;;4965209;29;20453;-87
2021/03/09 14:53:55;;;;;;;14.90;12.83;;;12.10;50.20;;;;;;4971880;28;20436;-86
2021/03/09 14:56:23;;;;;;;14.40;12.90;;;12.20;50.60;;;;;;4977215;28;20843;-87
2021/03/09 14:58:49;;;;;;;13.50;12.30;;;12.40;50.70;;;;;;4973834;28;20457;-86
2021/03/09 15:01:16;;;;;;;13.60;12.20;;;12.50;50.40;;;;;;4965284;28;20483;-85
2021/03/09 15:03:42;;;;;;;16.03;14.33;;;12.40;50.30;;;;;;4963236;28;20456;-86
2021/03/09 19:49:06;;;;;;;15.20;12.50;;;7.90;76.90;;;;;;5135154;27;876147;-92
2021/03/09 19:51:48;;;;;;;13.70;11.47;;;7.90;77.80;;;;;;5138997;28;20195;-92
2021/03/09 19:54:34;;;;;;;14.93;12.47;;;7.90;78.10;;;;;;5139526;28;20465;-92
2021/03/09 19:57:22;;;;;;;15.97;13.50;;;7.90;78.30;;;;;;5140526;27;20854;-92
2021/03/09 20:00:26;;;;;;;14.27;12.70;;;7.80;78.60;;;;;;5151867;28;20437;-91
2021/03/09 20:03:04;;;;;;;14.97;12.57;;;7.80;78.80;;;;;;5152645;27;20440;-93
2021/03/09 20:06:38;;;;;;;13.10;11.80;;;7.80;78.80;;;;;;5150223;28;20437;-93
2021/03/09 20:53:26;;;;;;;17.97;14.43;;;7.50;83.70;;;;;;5109783;28;20437;-92
2021/03/09 20:56:26;;;;;;;22.60;17.53;;;7.50;83.90;;;;;;5096143;27;20455;-91
2021/03/09 20:59:12;;;;;;;22.43;15.90;;;7.50;83.40;;;;;;5078403;28;20452;-91
2021/03/09 21:01:43;;;;;;;16.50;14.20;;;7.50;83.90;;;;;;5067320;28;20482;-92
2021/03/09 21:04:27;;;;;;;16.90;15.10;;;7.50;83.60;;;;;;5072193;28;20471;-92
2021/03/09 21:07:06;;;;;;;16.93;15.23;;;7.50;83.30;;;;;;5070667;28;20475;-93
2021/03/09 21:09:41;;;;;;;15.50;13.60;;;7.40;84.00;;;;;;5069849;28;20444;-91
2021/03/09 21:12:32;;;;;;;15.23;13.70;;;7.40;84.10;;;;;;5073063;28;20444;-92
2021/03/09 21:15:53;;;;;;;;;;;;;;;;;;;;;
2021/03/09 21:18:52;;;;;;;;;;;;;;;;;;;;;
2021/03/09 21:21:50;;;;;;;19.03;15.83;;;7.40;83.90;;;;;;5076311;28;20442;-91
2021/03/09 21:24:28;;;;;;;17.17;15.37;;;7.20;84.90;;;;;;5064967;28;20483;-91
2021/03/09 21:36:35;;;;;;;18.83;16.90;;;7.20;85.30;;;;;;5006558;28;20498;-91
2021/03/09 21:39:27;;;;;;;18.37;16.30;;;7.20;85.40;;;;;;5002253;28;20441;-91
2021/03/09 21:42:27;;;;;;;20.73;17.93;;;7.20;85.70;;;;;;5004404;28;20494;-91
2021/03/09 21:45:10;;;;;;;18.17;15.80;;;7.20;85.90;;;;;;5000694;28;20510;-91
2021/03/09 21:48:20;;;;;;;19.83;16.90;;;7.20;85.80;;;;;;5062793;28;20472;-91
2021/03/09 21:54:14;;;;;;;23.23;18.97;;;7.10;86.40;;;;;;5052310;28;20474;-91
2021/03/09 21:57:13;;;;;;;20.70;18.30;;;7.10;86.40;;;;;;5062105;28;20993;-91
2021/03/09 21:59:49;;;;;;;22.23;17.70;;;7.10;86.70;;;;;;5056839;28;20516;-91
2021/03/09 22:02:23;;;;;;;22.60;17.90;;;7.10;86.70;;;;;;5062238;28;20471;-91
2021/03/09 22:11:49;;;;;;;20.97;17.70;;;7.20;86.60;;;;;;5054365;28;20498;-92
2021/03/09 22:18:10;;;;;;;23.03;20.67;;;7.10;86.50;;;;;;5049551;28;21174;-91
2021/03/09 22:23:26;;;;;;;21.00;18.37;;;7.10;86.40;;;;;;5023884;28;20436;-90
2021/03/09 22:26:12;;;;;;;20.77;16.97;;;7.10;86.40;;;;;;5072927;28;20443;-91
2021/03/09 22:32:13;;;;;;;20.33;17.77;;;7.10;86.40;;;;;;5037381;28;20505;-91
2021/03/09 22:34:48;;;;;;;19.67;16.83;;;7.20;86.50;;;;;;4997881;28;20471;-92
2021/03/09 22:37:35;;;;;;;20.80;17.30;;;7.20;86.50;;;;;;4978714;28;20464;-91
2021/03/09 22:43:43;;;;;;;24.50;18.63;;;7.20;86.50;;;;;;5078801;28;20444;-90
2021/03/09 22:52:38;;;;;;;24.03;18.23;;;7.20;87.40;;;;;;4987993;28;20447;-92
